Time;durP1;ratioP1;P1;durP2;ratioP2;P2;SDS_P1;SDS_P2;PMS_P1;PMS_P2;Temp;Humidity;BMP_temperature;BMP_pressure;BME280_temperature;BME280_humidity;BME280_pressure;Samples;Min_cycle;Max_cycle;Signal;HPM_P1;HPM_P2
2022/03/04 00:01:06;;;;;;;44.65;16.35;;;;;;;-6.89;70.00;99241.19;4993443;28;20609;-80
2022/03/04 00:03:32;;;;;;;42.83;16.80;;;;;;;-6.94;70.42;99235.19;4995866;28;20472;-80
2022/03/04 00:05:58;;;;;;;64.45;21.40;;;;;;;-6.92;70.45;99220.41;5003795;28;20073;-80
2022/03/04 00:08:23;;;;;;;68.63;21.05;;;;;;;-6.74;70.26;99230.59;4994274;28;20053;-79
2022/03/04 00:10:49;;;;;;;62.70;20.92;;;;;;;-6.69;70.06;99227.97;5018041;28;20047;-80
2022/03/04 00:13:15;;;;;;;76.80;24.25;;;;;;;-6.60;69.84;99233.91;4972760;28;20093;-80
2022/03/04 00:15:41;;;;;;;88.32;23.50;;;;;;;-6.64;69.72;99236.56;4976796;28;20436;-79
2022/03/04 00:18:07;;;;;;;88.65;26.45;;;;;;;-6.77;69.82;99230.66;4976957;28;20038;-80
2022/03/04 00:20:33;;;;;;;98.97;28.02;;;;;;;-6.79;70.21;99235.00;4960823;28;20038;-79
2022/03/04 00:22:58;;;;;;;106.57;30.02;;;;;;;-6.80;70.54;99220.28;4994192;28;20057;-79
2022/03/04 00:25:24;;;;;;;118.70;32.58;;;;;;;-6.64;70.40;99221.81;4993801;28;20042;-79
2022/03/04 00:27:50;;;;;;;119.13;36.30;;;;;;;-6.55;70.05;99219.97;4976159;28;20675;-79
2022/03/04 00:30:16;;;;;;;120.10;31.48;;;;;;;-6.50;70.02;99208.66;4960254;28;20042;-81
2022/03/04 00:32:45;;;;;;;107.82;32.47;;;;;;;-6.44;70.07;99218.09;4960142;28;20544;-81
2022/03/04 00:35:11;;;;;;;108.53;30.13;;;;;;;-6.52;69.79;99214.75;4993742;28;20471;-81
2022/03/04 00:37:37;;;;;;;107.93;32.92;;;;;;;-6.60;69.96;99207.91;4993732;28;20097;-79
2022/03/04 00:40:05;;;;;;;111.28;31.92;;;;;;;-6.42;70.08;99227.59;4960201;28;20454;-80
2022/03/04 00:42:31;;;;;;;97.03;31.00;;;;;;;-6.38;70.04;99228.41;4976252;28;20050;-81
2022/03/04 00:44:56;;;;;;;100.55;29.88;;;;;;;-6.38;69.99;99233.63;4993438;28;20042;-80
2022/03/04 00:47:22;;;;;;;91.80;30.00;;;;;;;-6.37;69.79;99236.19;4960112;28;20043;-81
2022/03/04 00:49:48;;;;;;;89.82;29.83;;;;;;;-6.38;69.49;99223.22;4993361;28;20054;-79
2022/03/04 00:52:14;;;;;;;97.43;31.15;;;;;;;-6.37;69.71;99219.72;4943993;28;20050;-80
2022/03/04 00:54:40;;;;;;;96.97;29.92;;;;;;;-6.45;69.93;99211.19;4963048;28;20108;-80
2022/03/04 00:57:06;;;;;;;99.95;30.05;;;;;;;-6.49;70.35;99204.31;4966993;28;20046;-80
2022/03/04 00:59:32;;;;;;;105.00;31.05;;;;;;;-6.31;69.91;99214.47;5000371;28;20077;-80
2022/03/04 01:01:58;;;;;;;91.65;28.73;;;;;;;-6.29;69.99;99220.47;5000098;28;20248;-79
2022/03/04 01:04:25;;;;;;;86.70;29.38;;;;;;;-6.26;69.80;99222.19;5000347;28;20046;-80
2022/03/04 01:06:50;;;;;;;91.43;28.90;;;;;;;-6.25;69.51;99235.16;4982348;28;20133;-81
2022/03/04 01:09:16;;;;;;;89.72;30.70;;;;;;;-6.19;69.65;99231.63;4982423;28;20137;-80
2022/03/04 01:11:42;;;;;;;90.88;29.65;;;;;;;-6.11;69.35;99238.44;4982413;28;20042;-82
2022/03/04 01:14:08;;;;;;;87.32;29.50;;;;;;;-6.09;69.24;99246.22;5000135;28;20518;-80
2022/03/04 01:16:35;;;;;;;89.03;28.45;;;;;;;-6.00;69.38;99246.09;4999714;28;20141;-80
2022/03/04 01:19:02;;;;;;;88.22;25.38;;;;;;;-6.01;68.85;99230.50;4966114;28;20073;-80
2022/03/04 01:21:28;;;;;;;64.10;24.00;;;;;;;-6.09;68.70;99211.53;4982576;28;20046;-79
2022/03/04 01:23:54;;;;;;;68.55;24.17;;;;;;;-6.00;68.64;99229.63;4982314;28;20125;-80
2022/03/04 01:26:20;;;;;;;66.88;24.38;;;;;;;-5.95;68.93;99240.81;4966512;28;20054;-79
2022/03/04 01:28:46;;;;;;;66.18;23.73;;;;;;;-6.08;68.75;99210.66;4982756;28;20133;-79
2022/03/04 01:31:12;;;;;;;71.45;25.92;;;;;;;-6.13;68.90;99203.78;4998655;28;20130;-80
2022/03/04 01:33:39;;;;;;;78.07;26.92;;;;;;;-5.97;68.91;99208.75;4999783;28;20084;-80
2022/03/04 01:36:05;;;;;;;66.85;25.52;;;;;;;-5.93;68.90;99202.63;4982162;28;20049;-80
2022/03/04 01:38:31;;;;;;;78.93;25.70;;;;;;;-5.88;68.89;99221.56;4970063;28;20046;-79
2022/03/04 01:40:58;;;;;;;76.80;27.13;;;;;;;-5.78;68.46;99223.16;4996344;28;20065;-81
2022/03/04 01:43:23;;;;;;;96.60;31.50;;;;;;;-5.77;68.37;99209.25;4998423;28;20552;-80
2022/03/04 01:45:50;;;;;;;98.68;31.17;;;;;;;-5.70;68.15;99218.69;4984031;28;20046;-80
2022/03/04 01:48:19;;;;;;;114.13;32.75;;;;;;;-5.64;68.09;99218.59;4999767;28;20188;-80
2022/03/04 01:50:51;;;;;;;101.43;28.85;;;;;;;-5.75;68.24;99211.84;4998123;28;20402;-80
2022/03/04 01:53:18;;;;;;;101.00;31.15;;;;;;;-5.74;68.41;99227.44;4965989;28;20073;-83
2022/03/04 01:55:44;;;;;;;97.13;27.67;;;;;;;-5.63;68.50;99215.09;4982208;28;20432;-80
2022/03/04 01:58:10;;;;;;;96.43;30.23;;;;;;;-5.53;68.51;99220.13;4974679;28;20512;-80
2022/03/04 02:00:36;;;;;;;97.40;29.90;;;;;;;-5.52;68.14;99216.66;4987157;28;20140;-80
2022/03/04 02:03:11;;;;;;;98.57;30.92;;;;;;;-5.54;67.78;99213.22;4964399;28;20070;-80
2022/03/04 02:05:36;;;;;;;;;;;;;;;-5.50;68.00;99204.47;4945139;28;20058;-82
2022/03/04 02:08:02;;;;;;;94.97;28.85;;;;;;;-5.54;68.16;99198.44;4975078;28;19918;-79
2022/03/04 02:10:28;;;;;;;105.03;31.38;;;;;;;-5.54;67.96;99198.44;4976668;28;20439;-78
2022/03/04 02:12:54;;;;;;;108.18;31.55;;;;;;;-5.50;68.14;99192.28;4943207;28;20047;-79
2022/03/04 02:15:20;;;;;;;99.32;32.17;;;;;;;-5.46;67.87;99195.69;4959537;28;20047;-80
2022/03/04 02:17:46;;;;;;;127.15;35.15;;;;;;;-5.47;68.11;99188.78;4943254;28;20134;-80
2022/03/04 02:20:12;;;;;;;114.55;31.98;;;;;;;-5.41;67.78;99193.91;4959221;28;20042;-80
2022/03/04 02:22:38;;;;;;;103.30;31.70;;;;;;;-5.37;67.63;99195.56;4927312;28;20042;-80
2022/03/04 02:25:05;;;;;;;103.30;32.55;;;;;;;-5.33;67.52;99181.59;4927138;28;20086;-80
2022/03/04 02:27:32;;;;;;;96.25;31.52;;;;;;;-5.27;67.91;99175.38;4976389;28;20458;-80
2022/03/04 02:29:59;;;;;;;99.40;32.33;;;;;;;-5.32;67.46;99172.03;4960473;28;20053;-80
2022/03/04 02:32:25;;;;;;;91.68;30.05;;;;;;;-5.28;67.48;99166.72;4996057;28;20116;-79
2022/03/04 02:34:52;;;;;;;98.05;31.70;;;;;;;-5.27;67.85;99157.16;4978993;28;20046;-79
2022/03/04 02:37:19;;;;;;;95.47;29.88;;;;;;;-5.15;67.56;99155.19;4978383;28;20038;-80
2022/03/04 02:39:45;;;;;;;106.18;30.33;;;;;;;-5.13;67.37;99148.19;4995753;28;20057;-81
2022/03/04 02:42:11;;;;;;;92.95;30.50;;;;;;;-5.14;67.18;99146.47;4994361;28;20046;-80
2022/03/04 02:44:37;;;;;;;86.38;30.00;;;;;;;-5.21;67.05;99147.47;4977757;28;20068;-79
2022/03/04 02:47:04;;;;;;;85.85;29.10;;;;;;;-5.21;67.29;99149.22;4978091;28;20134;-80
2022/03/04 02:49:30;;;;;;;109.80;32.17;;;;;;;-5.22;67.18;99132.75;4977739;28;20529;-80
2022/03/04 02:51:55;;;;;;;97.05;29.20;;;;;;;-5.19;67.49;99132.69;4994445;28;20124;-81
2022/03/04 02:54:21;;;;;;;95.60;30.50;;;;;;;-5.15;67.34;99129.13;4978485;28;20039;-79
2022/03/04 02:56:47;;;;;;;87.82;30.50;;;;;;;-5.15;67.57;99128.28;4977976;28;20379;-79
2022/03/04 02:59:13;;;;;;;103.20;31.05;;;;;;;-5.16;67.37;99126.53;4977469;28;20213;-83
2022/03/04 03:01:39;;;;;;;94.85;32.65;;;;;;;-5.16;67.69;99122.19;4995198;28;20046;-79
2022/03/04 03:04:05;;;;;;;97.90;31.48;;;;;;;-5.25;67.78;99111.94;4969083;28;20089;-81
2022/03/04 03:06:31;;;;;;;97.70;34.20;;;;;;;-5.26;67.95;99115.44;4995346;28;20042;-80
2022/03/04 03:08:57;;;;;;;106.63;34.28;;;;;;;-5.10;67.86;99130.78;4995267;28;20092;-79
2022/03/04 03:11:23;;;;;;;102.63;34.50;;;;;;;-5.07;67.19;99128.97;4993926;28;20042;-79
2022/03/04 03:13:48;;;;;;;98.65;32.70;;;;;;;-5.05;67.08;99121.97;4961398;28;20046;-80
2022/03/04 03:16:14;;;;;;;110.18;36.50;;;;;;;-5.03;67.16;99124.56;4961564;28;20097;-79
2022/03/04 03:18:40;;;;;;;120.40;36.10;;;;;;;-5.05;67.23;99123.72;4977458;28;20116;-78
2022/03/04 03:21:06;;;;;;;127.97;35.80;;;;;;;-5.02;67.60;99119.28;4961461;28;20092;-80
2022/03/04 03:23:33;;;;;;;123.30;38.45;;;;;;;-5.01;67.69;99107.97;4994959;28;20044;-80
2022/03/04 03:25:58;;;;;;;105.32;34.75;;;;;;;-4.88;67.45;99108.59;4995342;28;20046;-81
2022/03/04 03:28:24;;;;;;;100.40;31.83;;;;;;;-4.80;67.29;99118.84;4994893;28;20402;-80
2022/03/04 03:30:51;;;;;;;95.13;30.45;;;;;;;-4.90;67.17;99115.56;4977469;28;20522;-78
2022/03/04 03:33:17;;;;;;;87.30;31.05;;;;;;;-4.92;67.17;99123.44;4995029;28;20073;-80
2022/03/04 03:35:43;;;;;;;101.13;31.95;;;;;;;-4.94;66.71;99116.53;4961083;28;20039;-80
2022/03/04 03:38:08;;;;;;;104.00;30.25;;;;;;;-4.89;67.00;99119.88;4994640;28;20474;-86
2022/03/04 03:40:35;;;;;;;100.35;31.73;;;;;;;-4.82;67.13;99116.25;4993301;28;20140;-81
2022/03/04 03:43:01;;;;;;;92.25;30.38;;;;;;;-4.97;66.59;99100.94;4994664;28;20513;-81
2022/03/04 03:45:27;;;;;;;90.15;29.17;;;;;;;-4.89;66.67;99107.75;4959645;28;20391;-82
2022/03/04 03:47:54;;;;;;;88.50;29.40;;;;;;;-4.82;66.39;99110.19;4994120;28;20049;-80
2022/03/04 03:50:20;;;;;;;92.38;30.88;;;;;;;-4.75;66.73;99106.56;4993831;28;20046;-79
2022/03/04 03:52:46;;;;;;;109.10;33.45;;;;;;;-4.55;66.76;99113.94;4999287;28;20053;-78
2022/03/04 03:55:12;;;;;;;124.13;36.78;;;;;;;-4.50;66.27;99117.31;4999632;28;20050;-78
2022/03/04 03:57:38;;;;;;;137.32;41.72;;;;;;;-4.48;65.85;99118.13;4977615;28;20498;-77
2022/03/04 04:00:05;;;;;;;136.10;40.58;;;;;;;-4.50;66.02;99119.91;4960285;28;20038;-80
2022/03/04 04:02:38;;;;;;;147.30;39.72;;;;;;;-4.46;66.39;99114.59;4977238;28;20054;-82
2022/03/04 04:05:05;;;;;;;143.20;40.35;;;;;;;-4.41;66.30;99102.28;4977253;28;20046;-80
2022/03/04 04:07:30;;;;;;;139.57;39.53;;;;;;;-4.28;66.14;99102.88;4976873;28;20162;-81
2022/03/04 04:09:56;;;;;;;142.40;40.17;;;;;;;-4.28;65.83;99102.88;4976358;28;20133;-79
2022/03/04 04:12:22;;;;;;;157.77;41.47;;;;;;;-4.27;65.80;99104.59;4975754;28;20086;-79
2022/03/04 04:14:48;;;;;;;149.45;43.95;;;;;;;-4.18;65.92;99096.50;4976676;28;20046;-80
2022/03/04 04:17:14;;;;;;;176.48;47.58;;;;;;;-4.03;66.00;99091.81;4992226;28;20050;-79
2022/03/04 04:19:40;;;;;;;227.57;56.38;;;;;;;-3.93;65.82;99082.88;4976056;28;20084;-80
2022/03/04 04:22:06;;;;;;;233.95;55.28;;;;;;;-3.78;65.87;99077.25;4959518;28;20046;-79
2022/03/04 04:24:32;;;;;;;163.30;45.72;;;;;;;-3.69;65.35;99086.59;4975455;28;20054;-80
2022/03/04 04:26:58;;;;;;;189.65;43.05;;;;;;;-3.63;65.31;99081.22;4959124;28;20126;-76
2022/03/04 04:29:24;;;;;;;165.27;41.15;;;;;;;-3.48;64.88;99093.84;4991639;28;20150;-77
2022/03/04 04:31:50;;;;;;;145.73;41.00;;;;;;;-3.44;64.32;99078.94;4976196;28;20134;-78
2022/03/04 04:34:16;;;;;;;130.55;39.08;;;;;;;-3.40;64.06;99083.19;4991609;28;20049;-79
2022/03/04 04:36:42;;;;;;;116.18;35.33;;;;;;;-3.58;64.04;99073.25;4975957;28;20046;-77
2022/03/04 04:39:07;;;;;;;105.57;32.80;;;;;;;-3.64;64.01;99076.03;4959506;28;20050;-81
2022/03/04 04:41:34;;;;;;;112.60;33.75;;;;;;;-3.62;64.52;99080.28;4991372;28;20418;-78
2022/03/04 04:44:01;;;;;;;107.35;34.92;;;;;;;-3.44;64.45;99078.94;4992564;28;20502;-79
2022/03/04 04:46:26;;;;;;;128.20;36.60;;;;;;;-3.23;64.04;99065.28;4993026;28;20038;-79
2022/03/04 04:48:52;;;;;;;193.30;45.38;;;;;;;-3.25;63.97;99072.31;4939532;28;20414;-77
2022/03/04 04:51:19;;;;;;;179.27;43.60;;;;;;;-3.12;63.71;99067.59;4971475;28;20055;-78
2022/03/04 04:53:45;;;;;;;157.15;41.22;;;;;;;-2.81;63.48;99066.69;4971441;28;20114;-81
2022/03/04 04:56:11;;;;;;;168.88;42.15;;;;;;;-2.54;63.14;99062.34;4970578;28;20458;-80
2022/03/04 04:58:37;;;;;;;168.55;46.25;;;;;;;-2.37;62.99;99062.69;4955418;28;20109;-79
2022/03/04 05:01:03;;;;;;;151.55;40.80;;;;;;;-2.17;62.11;99089.97;4971813;28;20054;-80
2022/03/04 05:03:29;;;;;;;178.68;48.42;;;;;;;-2.12;61.27;99091.53;4971453;28;20050;-79
2022/03/04 05:05:56;;;;;;;156.70;48.92;;;;;;;-1.96;61.34;99089.25;4968020;28;20689;-80
2022/03/04 05:08:24;;;;;;;156.75;47.30;;;;;;;-1.94;60.50;99086.59;4946726;28;20090;-80
2022/03/04 05:10:50;;;;;;;180.05;49.90;;;;;;;-2.00;61.11;99083.25;4970658;28;20415;-80
2022/03/04 05:13:16;;;;;;;162.07;47.00;;;;;;;-1.89;60.95;99079.44;4971502;28;20117;-80
2022/03/04 05:15:42;;;;;;;141.43;43.55;;;;;;;-1.68;60.69;99073.47;4971768;28;20050;-80
2022/03/04 05:18:11;;;;;;;119.22;39.85;;;;;;;-1.50;59.92;99071.97;4938691;28;20138;-80
2022/03/04 05:20:37;;;;;;;118.28;37.70;;;;;;;-1.71;59.64;99063.09;4971242;28;20150;-80
2022/03/04 05:23:03;;;;;;;114.07;38.47;;;;;;;-1.79;59.61;99065.97;4951870;28;20070;-81
2022/03/04 05:25:29;;;;;;;127.15;37.40;;;;;;;-1.55;59.78;99071.25;4949742;28;20122;-79
2022/03/04 05:27:56;;;;;;;116.63;37.58;;;;;;;-1.32;58.88;99052.94;4992981;28;20058;-80
2022/03/04 05:30:22;;;;;;;119.03;38.15;;;;;;;-1.18;58.75;99055.06;4975239;28;20038;-79
2022/03/04 05:32:48;;;;;;;115.63;37.72;;;;;;;-1.04;59.00;99058.03;4975319;28;20042;-80
2022/03/04 05:35:14;;;;;;;112.50;35.05;;;;;;;-0.85;58.31;99047.69;4991751;28;20069;-80
2022/03/04 05:37:40;;;;;;;92.93;30.50;;;;;;;-0.71;58.33;99046.28;4975378;28;20052;-80
2022/03/04 05:40:06;;;;;;;59.42;24.52;;;;;;;-0.60;57.94;99046.72;4975015;28;20113;-81
2022/03/04 05:42:33;;;;;;;58.45;23.48;;;;;;;-0.59;57.11;99046.69;4963374;28;20070;-80
2022/03/04 05:44:59;;;;;;;57.50;22.38;;;;;;;-0.52;57.70;99036.81;4996741;28;20092;-79
2022/03/04 05:47:25;;;;;;;52.90;22.75;;;;;;;-0.38;57.67;99050.22;4969624;28;20054;-80
2022/03/04 05:49:51;;;;;;;56.50;23.77;;;;;;;-0.16;57.55;99044.09;5009237;28;20061;-81
2022/03/04 05:52:17;;;;;;;50.13;20.98;;;;;;;0.04;57.04;99032.75;4991900;28;20415;-78
2022/03/04 05:54:43;;;;;;;55.00;21.77;;;;;;;0.18;56.73;99025.97;4996543;28;20096;-80
2022/03/04 05:57:10;;;;;;;48.60;21.95;;;;;;;0.25;56.13;99029.22;4979185;28;20043;-80
2022/03/04 05:59:35;;;;;;;63.83;21.80;;;;;;;0.10;56.48;99033.34;4978713;28;20224;-81
2022/03/04 06:02:02;;;;;;;59.10;21.55;;;;;;;-0.14;56.63;99031.75;4963098;28;20042;-80
2022/03/04 06:04:27;;;;;;;53.50;23.70;;;;;;;0.10;57.19;99025.47;4996429;28;20516;-80
2022/03/04 06:06:53;;;;;;;62.00;23.45;;;;;;;0.38;56.47;99021.66;4962545;28;20121;-80
2022/03/04 06:09:21;;;;;;;61.75;22.23;;;;;;;0.63;56.23;99024.03;4978726;28;20052;-79
2022/03/04 06:11:47;;;;;;;65.05;23.08;;;;;;;0.84;56.19;99017.81;4996102;28;20053;-79
2022/03/04 06:14:13;;;;;;;71.68;23.48;;;;;;;1.03;55.40;99023.09;4996432;28;20065;-81
2022/03/04 06:16:38;;;;;;;61.30;22.23;;;;;;;1.13;55.84;99008.59;4995963;28;20042;-80
2022/03/04 06:19:04;;;;;;;61.15;22.98;;;;;;;1.29;54.95;99005.22;4978169;28;20170;-80
2022/03/04 06:21:30;;;;;;;70.13;23.42;;;;;;;1.36;54.99;99009.28;4978399;28;20065;-81
2022/03/04 06:23:56;;;;;;;67.13;23.38;;;;;;;1.37;55.30;99008.34;4994833;28;20080;-81
2022/03/04 06:26:22;;;;;;;58.47;22.05;;;;;;;1.55;55.21;99002.19;4978418;28;20073;-81
2022/03/04 06:28:48;;;;;;;67.05;22.38;;;;;;;1.70;54.17;98997.94;4996160;28;20053;-80
2022/03/04 06:31:14;;;;;;;71.50;23.25;;;;;;;1.76;53.94;98987.09;4978220;28;20046;-81
2022/03/04 06:33:42;;;;;;;67.00;21.58;;;;;;;1.75;54.39;98969.59;4978367;28;20133;-81
2022/03/04 06:36:13;;;;;;;95.00;27.25;;;;;;;1.54;53.79;98966.22;4978419;28;20053;-81
2022/03/04 06:38:42;;;;;;;73.88;25.65;;;;;;;1.49;54.79;98962.97;4978894;28;20042;-81
2022/03/04 06:41:11;;;;;;;87.43;26.70;;;;;;;1.79;54.47;98949.19;4978247;28;20129;-80
2022/03/04 06:43:38;;;;;;;66.72;22.88;;;;;;;2.07;53.83;98938.97;4995613;28;20046;-81
2022/03/04 06:46:04;;;;;;;66.40;24.10;;;;;;;2.25;53.50;98945.03;4994356;28;20056;-82
2022/03/04 06:48:31;;;;;;;65.10;23.77;;;;;;;2.36;53.02;98953.25;4995565;28;20070;-81
2022/03/04 06:50:57;;;;;;;58.60;23.63;;;;;;;2.40;52.78;98949.50;4994032;28;20058;-81
2022/03/04 06:53:24;;;;;;;65.60;21.10;;;;;;;2.24;53.37;98945.97;4961406;28;20042;-81
2022/03/04 06:55:50;;;;;;;52.03;18.85;;;;;;;2.52;53.37;98950.66;4995912;28;20050;-80
2022/03/04 06:58:17;;;;;;;52.67;19.30;;;;;;;2.58;53.62;98960.88;4995297;28;20073;-80
2022/03/04 07:00:44;;;;;;;61.15;24.13;;;;;;;2.80;52.29;98965.00;4995537;28;20494;-80
2022/03/04 07:03:10;;;;;;;68.03;21.90;;;;;;;2.78;52.68;98980.06;4977800;28;20109;-80
2022/03/04 07:05:37;;;;;;;52.00;21.23;;;;;;;2.83;52.50;98991.25;4995250;28;20498;-82
2022/03/04 07:08:04;;;;;;;49.20;19.98;;;;;;;2.87;52.23;98961.09;4977660;28;20034;-80
2022/03/04 07:10:29;;;;;;;40.95;18.30;;;;;;;2.92;52.36;98964.31;4995011;28;20046;-78
2022/03/04 07:12:55;;;;;;;43.17;16.75;;;;;;;3.08;52.46;98981.00;4977775;28;20524;-81
2022/03/04 07:15:21;;;;;;;39.03;16.92;;;;;;;3.09;51.46;98992.47;4995803;28;20042;-79
2022/03/04 07:17:47;;;;;;;34.90;13.88;;;;;;;3.09;52.06;98993.31;4994730;28;20552;-81
2022/03/04 07:20:13;;;;;;;32.80;14.07;;;;;;;3.06;52.29;99001.38;4978152;28;20042;-79
2022/03/04 07:22:39;;;;;;;36.75;13.23;;;;;;;3.08;52.13;98991.56;4994873;28;20042;-79
2022/03/04 07:25:11;;;;;;;26.88;12.48;;;;;;;2.78;53.26;98980.06;4979826;28;20543;-80
2022/03/04 07:27:38;;;;;;;30.50;12.73;;;;;;;2.70;54.18;98979.63;4998313;28;20065;-81
2022/03/04 07:30:10;;;;;;;31.40;13.63;;;;;;;2.83;54.00;98964.84;4980848;28;20100;-80
2022/03/04 07:32:38;;;;;;;32.88;13.25;;;;;;;2.99;54.06;98981.53;4980826;28;20092;-80
2022/03/04 07:35:05;;;;;;;31.33;13.75;;;;;;;3.17;53.34;98974.38;4998546;28;20069;-86
2022/03/04 07:37:31;;;;;;;36.10;14.32;;;;;;;2.87;53.90;98971.66;4949931;28;20058;-82
2022/03/04 07:39:57;;;;;;;29.77;13.23;;;;;;;2.89;54.11;98975.03;4999513;28;20043;-81
2022/03/04 07:42:23;;;;;;;36.83;14.38;;;;;;;2.84;54.50;98977.94;4997017;28;20129;-82
2022/03/04 07:44:49;;;;;;;54.05;18.95;;;;;;;2.58;54.95;98976.69;4993305;28;20056;-80
2022/03/04 07:47:16;;;;;;;103.43;29.60;;;;;;;2.34;54.16;98978.00;4977234;28;20126;-82
2022/03/04 07:49:43;;;;;;;91.93;29.73;;;;;;;2.62;54.66;98975.59;4977270;28;20069;-79
2022/03/04 07:52:09;;;;;;;84.80;30.17;;;;;;;2.90;54.43;98967.06;4976470;28;20046;-80
2022/03/04 07:54:36;;;;;;;79.20;27.25;;;;;;;2.65;53.38;98977.22;4976934;28;20049;-83
2022/03/04 07:57:02;;;;;;;94.43;30.75;;;;;;;2.50;53.82;98965.72;4962075;28;20480;-83
2022/03/04 07:59:28;;;;;;;80.13;28.63;;;;;;;1.99;55.13;98969.25;4948324;28;20100;-83
2022/03/04 08:01:54;;;;;;;83.38;23.73;;;;;;;1.79;56.66;98968.50;4995290;28;20050;-79
2022/03/04 08:04:19;;;;;;;139.75;43.25;;;;;;;1.67;55.67;98961.22;4995038;28;20124;-88
2022/03/04 08:06:45;;;;;;;143.85;42.42;;;;;;;1.56;56.04;98960.91;4992680;28;20047;-82
2022/03/04 08:09:11;;;;;;;151.50;47.22;;;;;;;1.61;56.12;98946.53;4995022;28;20073;-83
2022/03/04 08:11:37;;;;;;;145.30;43.78;;;;;;;1.69;56.39;98952.31;4960225;28;20098;-86
2022/03/04 08:14:03;;;;;;;151.10;43.03;;;;;;;1.73;55.90;98949.50;4954454;28;20043;-86
2022/03/04 08:16:29;;;;;;;154.43;45.00;;;;;;;1.77;55.62;98941.38;4957855;28;20050;-82
2022/03/04 08:19:03;;;;;;;142.77;41.70;;;;;;;1.78;55.92;98939.59;4957738;28;20101;-85
2022/03/04 08:21:29;;;;;;;149.77;44.70;;;;;;;1.63;55.19;98934.16;4974586;28;20580;-83
2022/03/04 08:23:55;;;;;;;186.85;52.10;;;;;;;1.55;55.77;98946.88;4974084;28;20141;-81
2022/03/04 08:26:21;;;;;;;157.82;45.85;;;;;;;1.36;56.06;98940.81;4973244;28;20050;-83
2022/03/04 08:28:46;;;;;;;183.30;49.10;;;;;;;1.82;56.23;98951.69;4956852;28;20053;-79
2022/03/04 08:31:12;;;;;;;161.43;47.20;;;;;;;2.37;55.13;98946.19;4940706;28;20039;-79
2022/03/04 08:33:44;;;;;;;155.10;47.30;;;;;;;2.29;54.20;98943.09;4957373;28;20053;-84
2022/03/04 08:36:11;;;;;;;154.20;46.15;;;;;;;2.52;53.90;98939.22;4972290;28;20413;-81
2022/03/04 08:38:38;;;;;;;155.75;48.25;;;;;;;2.60;53.70;98945.81;4940503;28;20057;-86
2022/03/04 08:41:03;;;;;;;182.27;48.35;;;;;;;2.72;53.93;98946.09;4956660;28;20057;-84
2022/03/04 08:43:31;;;;;;;178.57;51.13;;;;;;;3.03;53.08;98942.63;4973705;28;20050;-85
2022/03/04 08:45:57;;;;;;;150.98;47.83;;;;;;;3.41;52.44;98946.56;4973141;28;20038;-86
2022/03/04 08:48:23;;;;;;;154.10;48.75;;;;;;;3.89;51.97;98946.47;4956653;28;20051;-87
2022/03/04 08:50:49;;;;;;;160.15;49.22;;;;;;;3.82;51.15;98943.34;4971990;28;20055;-87
2022/03/04 08:53:14;;;;;;;148.25;45.50;;;;;;;3.93;50.57;98942.69;4956636;28;20046;-85
2022/03/04 08:55:44;;;;;;;139.15;46.03;;;;;;;3.50;51.09;98925.84;4974134;28;20043;-85
2022/03/04 08:58:10;;;;;;;148.57;46.13;;;;;;;3.21;51.93;98930.19;4946118;28;20057;-86
2022/03/04 09:00:37;;;;;;;140.20;46.42;;;;;;;3.05;52.31;98923.13;4964902;28;20073;-84
2022/03/04 09:03:04;;;;;;;154.27;47.15;;;;;;;3.08;52.68;98920.28;4987459;28;20524;-84
2022/03/04 09:05:31;;;;;;;169.10;49.88;;;;;;;3.74;51.73;98931.50;4971502;28;20046;-84
2022/03/04 09:07:57;;;;;;;164.98;48.40;;;;;;;3.99;51.49;98931.78;4965092;28;20085;-80
2022/03/04 09:10:23;;;;;;;148.00;46.13;;;;;;;4.39;51.01;98942.56;4983034;28;20046;-85
2022/03/04 09:12:49;;;;;;;141.70;44.53;;;;;;;4.81;49.56;98956.75;4965874;28;20035;-85
2022/03/04 09:15:15;;;;;;;152.35;45.38;;;;;;;4.85;48.75;98959.13;4965069;28;20616;-85
2022/03/04 09:17:41;;;;;;;143.48;44.20;;;;;;;5.14;49.52;98947.63;4952140;28;20105;-85
2022/03/04 09:20:11;;;;;;;139.90;41.83;;;;;;;5.35;48.74;98941.78;4976066;28;20042;-85
2022/03/04 09:22:36;;;;;;;126.50;39.67;;;;;;;5.24;48.23;98927.53;4991502;28;20042;-85
2022/03/04 09:25:03;;;;;;;105.32;36.13;;;;;;;5.29;48.65;98936.03;4966584;28;20438;-85
2022/03/04 09:27:29;;;;;;;115.00;35.92;;;;;;;5.08;48.82;98939.13;4956809;28;20058;-85
2022/03/04 09:29:54;;;;;;;131.15;38.85;;;;;;;5.16;48.57;98925.38;4988235;28;20047;-84
2022/03/04 09:32:20;;;;;;;125.47;40.30;;;;;;;5.11;48.60;98938.94;4973464;28;20043;-86
2022/03/04 09:34:47;;;;;;;115.72;36.28;;;;;;;4.89;48.75;98935.94;4982270;28;20050;-83
2022/03/04 09:37:13;;;;;;;103.63;35.40;;;;;;;4.98;49.42;98943.31;4987295;28;20418;-80
2022/03/04 09:39:38;;;;;;;118.85;35.63;;;;;;;5.25;48.44;98929.22;4929645;28;20038;-82
2022/03/04 09:42:07;;;;;;;120.80;34.72;;;;;;;5.30;48.17;98928.00;4944730;28;20050;-80
2022/03/04 09:44:45;;;;;;;97.13;31.90;;;;;;;5.15;48.51;98926.31;4978784;28;20039;-85
2022/03/04 09:47:11;;;;;;;107.28;30.85;;;;;;;5.39;48.06;98925.69;4944547;28;20045;-87
2022/03/04 09:49:38;;;;;;;98.45;28.90;;;;;;;5.05;48.00;98909.34;4945619;28;20055;-88
2022/03/04 09:52:06;;;;;;;105.82;30.00;;;;;;;4.96;48.79;98907.25;4960993;28;20487;-86
2022/03/04 09:54:32;;;;;;;90.93;30.80;;;;;;;4.75;49.20;98909.47;4947292;28;20043;-84
2022/03/04 09:56:59;;;;;;;111.88;33.42;;;;;;;5.00;49.42;98899.03;4950247;28;20042;-83
2022/03/04 09:59:25;;;;;;;104.82;32.90;;;;;;;5.13;48.36;98882.34;4956242;28;20045;-85
2022/03/04 10:01:51;;;;;;;113.20;33.90;;;;;;;4.19;50.21;98897.97;4961046;28;20059;-84
2022/03/04 10:04:17;;;;;;;97.72;30.50;;;;;;;3.34;52.18;98897.66;4945046;28;20510;-94
2022/03/04 10:06:49;;;;;;;97.35;31.70;;;;;;;2.99;53.23;98902.31;4946309;28;20042;-90
2022/03/04 10:09:36;;;;;;;125.05;35.33;;;;;;;3.21;53.54;98886.13;4969164;28;20573;-89
2022/03/04 10:12:04;;;;;;;118.50;35.55;;;;;;;3.71;52.92;98871.75;4959910;28;20405;-88
2022/03/04 10:14:31;;;;;;;107.00;34.17;;;;;;;4.20;51.85;98867.91;4959687;28;20153;-88
2022/03/04 10:16:58;;;;;;;112.55;33.75;;;;;;;3.63;51.98;98861.63;4976873;28;20142;-86
2022/03/04 10:19:24;;;;;;;123.35;35.88;;;;;;;3.48;53.03;98851.97;4943870;28;20038;-88
2022/03/04 10:21:58;;;;;;;121.60;37.13;;;;;;;3.10;53.58;98857.69;4960293;28;20035;-85
2022/03/04 10:24:27;;;;;;;109.13;34.63;;;;;;;2.73;54.50;98866.81;4963832;28;20054;-88
2022/03/04 10:27:10;;;;;;;120.15;36.35;;;;;;;2.18;56.32;98861.91;4978418;28;20046;-84
2022/03/04 10:29:48;;;;;;;126.95;39.00;;;;;;;2.70;55.50;98858.22;4976930;28;20073;-83
2022/03/04 10:32:26;;;;;;;121.78;34.95;;;;;;;2.55;55.29;98860.78;4959692;28;20058;-84
2022/03/04 10:34:58;;;;;;;111.97;34.90;;;;;;;2.36;56.38;98855.66;4960498;28;20466;-84
2022/03/04 10:37:43;;;;;;;100.72;37.33;;;;;;;2.44;56.27;98847.31;4959779;28;20065;-84
2022/03/04 10:40:29;;;;;;;94.90;33.33;;;;;;;2.40;55.89;98845.78;4976531;28;20097;-84
2022/03/04 10:42:59;;;;;;;107.22;32.42;;;;;;;2.06;56.91;98831.78;4976574;28;20085;-86
2022/03/04 10:45:31;;;;;;;103.70;33.80;;;;;;;2.12;56.27;98815.66;4959129;28;20059;-86
2022/03/04 10:48:07;;;;;;;95.85;32.63;;;;;;;2.31;56.61;98809.38;4976455;28;20046;-84
2022/03/04 10:50:41;;;;;;;99.88;30.92;;;;;;;2.70;55.67;98805.44;4926573;28;20059;-85
2022/03/04 10:53:18;;;;;;;91.45;30.48;;;;;;;3.05;55.15;98806.09;4958827;28;20049;-84
2022/03/04 10:55:46;;;;;;;99.47;31.08;;;;;;;3.20;54.05;98804.31;4958281;28;20450;-84
2022/03/04 10:58:17;;;;;;;97.55;31.52;;;;;;;3.12;54.50;98783.63;4958139;28;20042;-84
2022/03/04 11:00:46;;;;;;;129.63;34.25;;;;;;;3.34;54.54;98780.59;4942708;28;20073;-86
2022/03/04 11:03:19;;;;;;;100.68;31.17;;;;;;;3.68;53.86;98789.97;4932274;28;20049;-84
2022/03/04 11:05:47;;;;;;;114.97;33.25;;;;;;;3.93;52.80;98775.28;4953539;28;20067;-85
2022/03/04 11:08:14;;;;;;;129.48;34.60;;;;;;;3.75;53.06;98778.09;4959045;28;20108;-84
2022/03/04 11:10:40;;;;;;;141.05;37.60;;;;;;;4.23;52.41;98772.50;4959351;28;20050;-85
2022/03/04 11:13:08;;;;;;;138.85;37.90;;;;;;;4.30;51.63;98765.88;4977902;28;20114;-84
2022/03/04 11:15:35;;;;;;;153.70;41.75;;;;;;;4.61;51.00;98764.75;4953121;28;20054;-85